createdAt,value
2022-10-25T00:00:55.612Z,5.47
2022-10-25T00:03:22.020Z,6.38
2022-10-25T00:05:48.430Z,6.10
2022-10-25T00:08:14.923Z,7.75
2022-10-25T00:10:41.343Z,7.22
2022-10-25T00:13:07.754Z,7.05
2022-10-25T00:15:34.700Z,5.47
2022-10-25T00:18:01.142Z,7.68
2022-10-25T00:20:27.625Z,5.13
2022-10-25T00:22:54.036Z,5.10
2022-10-25T00:25:20.754Z,5.70
2022-10-25T00:27:47.239Z,5.95
2022-10-25T00:30:14.217Z,5.47
2022-10-25T00:32:40.628Z,5.72
2022-10-25T00:35:07.484Z,6.15
2022-10-25T00:37:33.896Z,5.82
2022-10-25T00:40:00.334Z,6.80
2022-10-25T00:42:27.413Z,5.60
2022-10-25T00:44:57.403Z,5.88
2022-10-25T00:47:43.104Z,5.63
2022-10-25T00:50:41.164Z,5.75
2022-10-25T00:53:17.303Z,5.00
2022-10-25T00:55:47.259Z,5.13
2022-10-25T00:58:19.873Z,5.90
2022-10-25T01:00:46.481Z,4.95
2022-10-25T01:03:16.527Z,6.10
2022-10-25T01:05:44.377Z,6.03
2022-10-25T01:08:12.144Z,5.30
2022-10-25T01:10:38.716Z,5.28
2022-10-25T01:13:05.450Z,5.72
2022-10-25T01:16:08.872Z,4.18
2022-10-25T01:18:43.415Z,4.65
2022-10-25T01:21:28.360Z,5.55
2022-10-25T01:24:31.880Z,5.35
2022-10-25T01:27:32.600Z,5.38
2022-10-25T01:30:13.558Z,5.93
2022-10-25T01:32:49.560Z,5.93
2022-10-25T01:35:29.917Z,6.95
2022-10-25T01:38:29.284Z,6.32
2022-10-25T01:41:06.473Z,6.57
2022-10-25T01:43:48.084Z,6.60
2022-10-25T01:46:25.674Z,7.00
2022-10-25T01:49:08.107Z,6.80
2022-10-25T01:51:38.325Z,6.40
2022-10-25T01:54:25.300Z,6.75
2022-10-25T01:57:36.998Z,7.88
2022-10-25T02:00:11.562Z,7.30
2022-10-25T02:03:11.813Z,8.25
2022-10-25T02:05:53.527Z,8.05
2022-10-25T02:08:47.886Z,7.78
2022-10-25T02:11:24.822Z,8.30
2022-10-25T02:14:07.038Z,8.43
2022-10-25T02:17:03.382Z,7.45
2022-10-25T02:19:42.183Z,8.20
2022-10-25T02:22:11.032Z,8.45
2022-10-25T02:24:39.499Z,7.68
2022-10-25T02:27:08.262Z,7.68
2022-10-25T02:29:36.322Z,8.32
2022-10-25T02:32:04.413Z,8.13
2022-10-25T02:34:31.676Z,7.82
2022-10-25T02:36:59.464Z,6.45
2022-10-25T02:39:31.248Z,7.28
2022-10-25T02:41:58.700Z,6.75
2022-10-25T02:44:25.089Z,7.07
2022-10-25T02:46:51.479Z,7.57
2022-10-25T02:49:17.874Z,7.88
2022-10-25T02:51:44.314Z,7.10
2022-10-25T02:54:10.772Z,7.32
2022-10-25T02:56:38.274Z,7.13
2022-10-25T02:59:05.008Z,8.32
2022-10-25T03:01:31.676Z,8.13
2022-10-25T03:03:58.168Z,8.57
2022-10-25T03:06:24.564Z,7.97
2022-10-25T03:08:50.961Z,8.18
2022-10-25T03:11:17.666Z,10.55
2022-10-25T03:13:44.383Z,11.30
2022-10-25T03:16:10.847Z,10.45
2022-10-25T03:18:37.592Z,12.45
2022-10-25T03:21:04.396Z,12.30
2022-10-25T03:23:31.402Z,12.30
2022-10-25T03:25:59.169Z,13.57
2022-10-25T03:28:27.473Z,13.52
2022-10-25T03:30:54.918Z,13.13
2022-10-25T03:33:21.589Z,14.23
2022-10-25T03:35:51.848Z,13.90
2022-10-25T03:38:18.431Z,15.25
2022-10-25T03:40:45.469Z,14.05
2022-10-25T03:43:12.359Z,13.18
2022-10-25T03:45:38.832Z,14.00
2022-10-25T03:48:05.645Z,12.93
2022-10-25T03:50:32.050Z,12.70
2022-10-25T03:52:58.498Z,12.57
2022-10-25T03:55:25.005Z,14.15
2022-10-25T03:57:51.386Z,15.88
2022-10-25T04:00:17.866Z,14.20
2022-10-25T04:02:44.403Z,14.65
2022-10-25T04:05:10.857Z,13.85
2022-10-25T04:07:37.318Z,13.32
2022-10-25T04:10:04.435Z,13.05
2022-10-25T04:12:30.928Z,13.60
2022-10-25T04:14:57.336Z,14.20
2022-10-25T04:17:23.767Z,13.40
2022-10-25T04:19:50.161Z,14.40
2022-10-25T04:22:16.583Z,13.82
2022-10-25T04:24:42.985Z,16.00
2022-10-25T04:27:09.404Z,16.52
2022-10-25T04:29:35.800Z,15.85
2022-10-25T04:32:02.251Z,15.77
2022-10-25T04:34:28.692Z,14.95
2022-10-25T04:36:55.133Z,15.85
2022-10-25T04:39:21.589Z,13.40
2022-10-25T04:41:48.054Z,13.10
2022-10-25T04:44:14.521Z,13.93
2022-10-25T04:46:43.996Z,14.85
2022-10-25T04:49:14.173Z,14.77
2022-10-25T04:51:41.067Z,14.93
2022-10-25T04:54:07.778Z,15.18
2022-10-25T04:56:34.210Z,14.73
2022-10-25T04:59:00.826Z,14.60
2022-10-25T05:01:27.316Z,14.13
2022-10-25T05:03:53.801Z,14.75
2022-10-25T05:06:23.854Z,16.23
2022-10-25T05:08:51.583Z,13.80
2022-10-25T05:11:23.734Z,15.60
2022-10-25T05:13:50.612Z,15.25
2022-10-25T05:16:23.530Z,14.50
2022-10-25T05:18:51.627Z,15.25
2022-10-25T05:21:18.481Z,16.23
2022-10-25T05:23:45.750Z,15.63
2022-10-25T05:26:13.520Z,16.45
2022-10-25T05:28:41.342Z,16.67
2022-10-25T05:33:44.923Z,17.42
2022-10-25T05:36:12.863Z,18.05
2022-10-25T05:38:40.041Z,16.80
2022-10-25T05:41:07.376Z,15.65
2022-10-25T05:43:34.097Z,17.35
2022-10-25T05:46:06.726Z,16.27
2022-10-25T05:48:34.646Z,17.20
2022-10-25T05:51:38.542Z,18.73
2022-10-25T05:54:07.493Z,16.88
2022-10-25T05:56:35.207Z,17.73
2022-10-25T05:59:09.497Z,17.67
2022-10-25T06:01:40.728Z,16.75
2022-10-25T06:04:10.482Z,14.35
2022-10-25T06:06:38.627Z,14.90
2022-10-25T06:09:05.890Z,15.10
2022-10-25T06:11:32.572Z,16.60
2022-10-25T06:13:59.077Z,16.05
2022-10-25T06:16:25.841Z,16.17
2022-10-25T06:18:53.030Z,15.88
2022-10-25T06:21:22.151Z,14.93
2022-10-25T06:23:49.554Z,14.88
2022-10-25T06:26:21.812Z,13.95
2022-10-25T06:28:48.619Z,14.32
2022-10-25T06:31:17.535Z,13.98
2022-10-25T06:33:44.496Z,13.60
2022-10-25T06:36:17.254Z,14.35
2022-10-25T06:38:44.885Z,14.00
2022-10-25T06:41:13.653Z,13.98
2022-10-25T06:43:40.191Z,13.50
2022-10-25T06:46:13.600Z,13.13
2022-10-25T06:51:09.778Z,11.52
2022-10-25T06:53:36.419Z,11.30
2022-10-25T06:56:05.021Z,11.18
2022-10-25T06:58:33.895Z,10.52
2022-10-25T07:01:04.462Z,11.98
2022-10-25T07:03:35.456Z,11.95
2022-10-25T07:06:11.113Z,11.63
2022-10-25T07:08:39.395Z,11.38
2022-10-25T07:11:06.787Z,10.70
2022-10-25T07:13:34.278Z,10.57
2022-10-25T07:16:02.400Z,10.45
2022-10-25T07:18:30.377Z,10.10
2022-10-25T07:21:07.284Z,9.77
2022-10-25T07:23:34.493Z,10.48
2022-10-25T07:26:01.014Z,11.70
2022-10-25T07:28:27.531Z,9.98
2022-10-25T07:30:54.010Z,11.23
2022-10-25T07:33:21.045Z,10.38
2022-10-25T07:36:06.289Z,9.52
2022-10-25T07:38:35.782Z,10.38
2022-10-25T07:41:02.280Z,11.20
2022-10-25T07:43:29.495Z,10.73
2022-10-25T07:45:56.219Z,9.93
2022-10-25T07:48:23.396Z,9.98
2022-10-25T07:50:50.497Z,10.43
2022-10-25T07:53:16.960Z,10.30
2022-10-25T07:55:43.402Z,10.23
2022-10-25T07:58:11.400Z,8.68
2022-10-25T08:00:39.232Z,8.85
2022-10-25T08:03:05.796Z,8.35
2022-10-25T08:05:32.517Z,7.90
2022-10-25T08:07:58.934Z,7.18
2022-10-25T08:10:25.416Z,6.78
2022-10-25T08:12:54.932Z,7.00
2022-10-25T08:15:21.309Z,6.22
2022-10-25T08:17:48.060Z,5.53
2022-10-25T08:20:14.858Z,5.32
2022-10-25T08:22:41.279Z,5.60
2022-10-25T08:25:08.003Z,5.10
2022-10-25T08:27:34.424Z,6.18
2022-10-25T08:30:00.904Z,4.57
2022-10-25T08:32:28.506Z,5.53
2022-10-25T08:34:54.909Z,5.13
2022-10-25T08:37:21.388Z,5.38
2022-10-25T08:39:50.026Z,4.85
2022-10-25T08:42:47.622Z,4.50
2022-10-25T08:45:33.898Z,5.28
2022-10-25T08:48:02.457Z,5.20
2022-10-25T08:50:37.180Z,4.43
2022-10-25T08:53:11.013Z,3.97
2022-10-25T08:55:58.750Z,4.28
2022-10-25T08:58:43.522Z,3.88
2022-10-25T09:01:18.870Z,4.30
2022-10-25T09:03:45.634Z,4.40
2022-10-25T09:06:31.080Z,3.63
2022-10-25T09:09:18.704Z,3.25
2022-10-25T09:11:59.384Z,3.50
2022-10-25T09:14:43.671Z,3.80
2022-10-25T09:17:49.072Z,4.07
2022-10-25T09:20:28.695Z,3.15
2022-10-25T09:23:00.621Z,3.42
2022-10-25T09:25:41.967Z,4.10
2022-10-25T09:28:35.829Z,2.92
2022-10-25T09:31:05.056Z,3.40
2022-10-25T09:33:34.776Z,3.97
2022-10-25T09:36:03.756Z,3.67
2022-10-25T09:38:44.071Z,3.88
2022-10-25T09:41:22.740Z,4.03
2022-10-25T09:44:01.190Z,3.75
2022-10-25T09:46:39.679Z,3.67
2022-10-25T09:49:14.062Z,3.30
2022-10-25T09:51:57.583Z,3.40
2022-10-25T09:55:13.750Z,3.28
2022-10-25T09:57:40.353Z,3.22
2022-10-25T10:00:07.536Z,2.72
2022-10-25T10:02:34.042Z,3.20
2022-10-25T10:05:00.533Z,3.08
2022-10-25T10:07:32.828Z,2.50
2022-10-25T10:10:04.401Z,2.67
2022-10-25T10:12:49.305Z,3.00
2022-10-25T10:15:22.250Z,2.40
2022-10-25T10:20:34.996Z,2.97
2022-10-25T10:23:03.846Z,2.38
2022-10-25T10:25:32.866Z,3.30
2022-10-25T10:27:59.317Z,2.80
2022-10-25T10:30:30.924Z,2.90
2022-10-25T10:33:01.748Z,2.75
2022-10-25T10:35:32.305Z,2.78
2022-10-25T10:38:20.628Z,2.92
2022-10-25T10:40:50.740Z,3.25
2022-10-25T10:43:29.007Z,3.00
2022-10-25T10:46:02.382Z,2.80
2022-10-25T10:48:33.531Z,3.13
2022-10-25T10:51:00.347Z,2.80
2022-10-25T10:53:32.221Z,3.00
2022-10-25T10:56:06.024Z,2.90
2022-10-25T10:58:38.984Z,2.78
2022-10-25T11:03:53.485Z,3.45
2022-10-25T11:06:31.122Z,3.10
2022-10-25T11:09:09.897Z,2.47
2022-10-25T11:11:36.330Z,2.40
2022-10-25T11:14:10.991Z,3.83
2022-10-25T11:16:50.210Z,2.47
2022-10-25T11:19:54.023Z,3.10
2022-10-25T11:22:36.292Z,3.13
2022-10-25T11:25:26.544Z,2.57
2022-10-25T11:28:14.715Z,2.78
2022-10-25T11:30:47.126Z,2.60
2022-10-25T11:33:28.195Z,2.55
2022-10-25T11:36:06.727Z,2.50
2022-10-25T11:39:00.749Z,2.00
2022-10-25T11:41:50.988Z,2.20
2022-10-25T11:44:26.289Z,1.80
2022-10-25T11:47:11.453Z,2.15
2022-10-25T11:50:15.537Z,2.42
2022-10-25T11:53:25.702Z,2.28
2022-10-25T11:55:57.355Z,1.90
2022-10-25T11:58:35.124Z,2.00
2022-10-25T12:01:26.939Z,2.40
2022-10-25T12:04:02.611Z,1.90
2022-10-25T12:06:46.763Z,2.00
2022-10-25T12:09:21.530Z,1.77
2022-10-25T12:11:54.849Z,2.20
2022-10-25T12:14:32.142Z,1.65
2022-10-25T12:17:01.821Z,2.13
2022-10-25T12:19:32.547Z,2.03
2022-10-25T12:22:12.785Z,2.00
2022-10-25T12:24:43.940Z,1.90
2022-10-25T12:27:11.808Z,1.60
2022-10-25T12:29:49.867Z,1.90
2022-10-25T12:32:25.213Z,1.60
2022-10-25T12:34:54.159Z,2.10
2022-10-25T12:37:34.761Z,1.77
2022-10-25T12:40:01.429Z,1.55
2022-10-25T12:42:50.987Z,1.65
2022-10-25T12:45:42.248Z,2.17
2022-10-25T12:48:42.258Z,1.92
2022-10-25T12:51:37.126Z,1.63
2022-10-25T12:54:24.866Z,2.95
2022-10-25T12:57:20.977Z,2.22
2022-10-25T13:00:12.219Z,2.50
2022-10-25T13:03:19.360Z,2.20
2022-10-25T13:06:04.106Z,2.75
2022-10-25T13:08:32.367Z,2.38
2022-10-25T13:11:02.617Z,3.63
2022-10-25T13:13:33.724Z,2.00
2022-10-25T13:16:02.945Z,2.30
2022-10-25T13:18:32.451Z,2.20
2022-10-25T13:21:04.494Z,2.38
2022-10-25T13:23:42.869Z,2.17
2022-10-25T13:26:14.956Z,2.10
2022-10-25T13:28:48.408Z,1.63
2022-10-25T13:31:33.789Z,1.70
2022-10-25T13:34:12.592Z,1.73
2022-10-25T13:36:51.569Z,1.95
2022-10-25T13:39:25.393Z,1.90
2022-10-25T13:41:54.695Z,1.67
2022-10-25T13:44:25.583Z,1.77
2022-10-25T13:46:54.489Z,1.70
2022-10-25T13:49:35.091Z,1.70
2022-10-25T13:52:23.769Z,2.00
2022-10-25T13:54:54.473Z,1.75
2022-10-25T13:57:51.128Z,1.65
2022-10-25T14:00:23.764Z,1.90
2022-10-25T14:03:08.565Z,1.42
2022-10-25T14:05:53.925Z,1.58
2022-10-25T14:08:32.197Z,1.50
2022-10-25T14:11:09.017Z,2.08
2022-10-25T14:13:48.217Z,2.03
2022-10-25T14:16:26.546Z,1.60
2022-10-25T14:18:56.076Z,2.28
2022-10-25T14:21:25.812Z,2.58
2022-10-25T14:23:52.506Z,2.00
2022-10-25T14:26:21.245Z,2.33
2022-10-25T14:28:48.207Z,2.20
2022-10-25T14:31:19.853Z,2.22
2022-10-25T14:33:53.940Z,2.75
2022-10-25T14:36:36.528Z,2.00
2022-10-25T14:39:15.406Z,2.40
2022-10-25T14:41:53.320Z,2.00
2022-10-25T14:44:27.892Z,2.10
2022-10-25T14:46:59.669Z,2.63
2022-10-25T14:49:27.349Z,1.80
2022-10-25T14:51:59.553Z,2.03
2022-10-25T14:54:30.598Z,2.33
2022-10-25T14:57:08.025Z,2.40
2022-10-25T14:59:42.745Z,2.20
2022-10-25T15:02:19.599Z,1.98
2022-10-25T15:04:48.834Z,2.47
2022-10-25T15:07:36.558Z,2.40
2022-10-25T15:12:35.926Z,2.90
2022-10-25T15:15:34.589Z,2.90
2022-10-25T15:18:01.031Z,3.40
2022-10-25T15:20:30.427Z,3.17
2022-10-25T15:23:14.945Z,2.80
2022-10-25T15:25:41.364Z,3.20
2022-10-25T15:28:15.261Z,4.03
2022-10-25T15:30:42.962Z,3.15
2022-10-25T15:33:18.260Z,3.85
2022-10-25T15:36:05.370Z,3.30
2022-10-25T15:39:05.897Z,3.03
2022-10-25T15:41:21.357Z,3.00
2022-10-25T15:43:47.810Z,2.70
2022-10-25T15:46:23.129Z,3.25
2022-10-25T15:48:49.637Z,2.85
2022-10-25T15:51:16.141Z,2.72
2022-10-25T15:53:42.569Z,2.65
2022-10-25T15:56:13.398Z,3.60
2022-10-25T15:58:39.788Z,2.72
2022-10-25T16:01:06.784Z,3.33
2022-10-25T16:03:33.347Z,3.50
2022-10-25T16:05:59.799Z,3.08
2022-10-25T16:08:26.250Z,2.85
2022-10-25T16:10:53.397Z,3.40
2022-10-25T16:13:29.759Z,2.85
2022-10-25T16:15:56.478Z,3.40
2022-10-25T16:20:50.404Z,3.55
2022-10-25T16:23:22.584Z,3.60
2022-10-25T16:25:48.976Z,3.50
2022-10-25T16:28:15.452Z,3.13
2022-10-25T16:30:43.857Z,4.28
2022-10-25T16:33:11.516Z,5.30
2022-10-25T16:35:37.925Z,4.80
2022-10-25T16:38:04.484Z,4.45
2022-10-25T16:40:31.008Z,3.40
2022-10-25T16:42:58.343Z,2.95
2022-10-25T16:45:29.114Z,3.35
2022-10-25T16:47:57.167Z,2.95
2022-10-25T16:50:27.184Z,3.50
2022-10-25T16:52:59.225Z,3.15
2022-10-25T16:55:28.697Z,2.53
2022-10-25T16:57:56.629Z,2.72
2022-10-25T17:00:23.766Z,2.92
2022-10-25T17:02:50.749Z,3.38
2022-10-25T17:05:25.844Z,2.90
2022-10-25T17:07:52.619Z,3.20
2022-10-25T17:10:20.410Z,2.92
2022-10-25T17:12:49.136Z,3.22
2022-10-25T17:15:16.534Z,2.92
2022-10-25T17:17:45.496Z,2.65
2022-10-25T17:20:14.448Z,2.65
2022-10-25T17:22:41.181Z,2.72
2022-10-25T17:25:09.430Z,2.47
2022-10-25T17:27:38.100Z,2.72
2022-10-25T17:30:06.348Z,2.50
2022-10-25T17:32:32.789Z,3.03
2022-10-25T17:34:59.256Z,3.22
2022-10-25T17:37:25.683Z,2.90
2022-10-25T17:39:52.174Z,2.97
2022-10-25T17:42:20.169Z,2.92
2022-10-25T17:44:46.765Z,3.28
2022-10-25T17:47:14.216Z,3.08
2022-10-25T17:49:40.916Z,3.03
2022-10-25T17:52:07.962Z,3.95
2022-10-25T17:54:34.808Z,2.70
2022-10-25T17:57:02.882Z,2.90
2022-10-25T17:59:30.231Z,2.88
2022-10-25T18:01:57.608Z,3.17
2022-10-25T18:04:24.446Z,2.40
2022-10-25T18:06:50.937Z,3.00
2022-10-25T18:09:17.847Z,2.85
2022-10-25T18:11:44.985Z,3.55
2022-10-25T18:14:11.450Z,3.40
2022-10-25T18:16:38.150Z,3.38
2022-10-25T18:19:05.827Z,4.30
2022-10-25T18:21:33.711Z,3.78
2022-10-25T18:24:04.790Z,4.10
2022-10-25T18:26:32.160Z,5.30
2022-10-25T18:28:59.416Z,3.90
2022-10-25T18:31:27.239Z,4.60
2022-10-25T18:33:55.397Z,4.40
2022-10-25T18:36:21.962Z,4.78
2022-10-25T18:38:49.414Z,3.97
2022-10-25T18:41:19.112Z,4.70
2022-10-25T18:43:46.085Z,4.88
2022-10-25T18:46:12.700Z,5.57
2022-10-25T18:48:39.221Z,5.80
2022-10-25T18:51:07.759Z,5.18
2022-10-25T18:53:38.542Z,5.10
2022-10-25T18:56:09.717Z,5.07
2022-10-25T18:58:36.170Z,5.18
2022-10-25T19:01:11.091Z,5.15
2022-10-25T19:03:37.967Z,4.88
2022-10-25T19:06:05.181Z,4.05
2022-10-25T19:08:31.881Z,4.40
2022-10-25T19:11:03.271Z,4.78
2022-10-25T19:13:29.861Z,4.43
2022-10-25T19:15:57.995Z,4.45
2022-10-25T19:18:26.368Z,4.55
2022-10-25T19:20:53.215Z,5.72
2022-10-25T19:23:19.679Z,5.07
2022-10-25T19:25:46.293Z,4.20
2022-10-25T19:28:12.657Z,4.13
2022-10-25T19:30:40.394Z,4.80
2022-10-25T19:33:06.996Z,4.22
2022-10-25T19:35:33.889Z,4.68
2022-10-25T19:38:00.432Z,6.35
2022-10-25T19:40:26.950Z,5.50
2022-10-25T19:42:53.663Z,5.90
2022-10-25T19:45:20.135Z,6.32
2022-10-25T19:47:47.126Z,6.13
2022-10-25T19:50:14.111Z,6.70
2022-10-25T19:52:40.592Z,5.72
2022-10-25T19:55:07.343Z,6.40
2022-10-25T19:57:34.644Z,5.53
2022-10-25T20:00:02.087Z,5.07
2022-10-25T20:02:28.619Z,5.00
2022-10-25T20:04:55.523Z,5.50
2022-10-25T20:07:22.018Z,4.63
2022-10-25T20:09:48.409Z,5.18
2022-10-25T20:12:14.833Z,5.00
2022-10-25T20:14:42.741Z,5.63
2022-10-25T20:17:09.187Z,3.78
2022-10-25T20:19:35.623Z,5.13
2022-10-25T20:22:02.034Z,4.78
2022-10-25T20:24:28.539Z,4.18
2022-10-25T20:26:55.006Z,5.07
2022-10-25T20:29:23.827Z,4.30
2022-10-25T20:31:51.110Z,4.60
2022-10-25T20:34:19.214Z,4.18
2022-10-25T20:36:46.853Z,4.47
2022-10-25T20:39:13.743Z,4.47
2022-10-25T20:41:40.464Z,4.88
2022-10-25T20:44:08.644Z,4.72
2022-10-25T20:46:35.745Z,4.80
2022-10-25T20:49:03.330Z,4.35
2022-10-25T20:51:29.746Z,3.92
2022-10-25T20:53:57.013Z,4.60
2022-10-25T20:56:24.349Z,5.72
2022-10-25T20:58:51.180Z,5.68
2022-10-25T21:01:18.583Z,5.68
2022-10-25T21:03:45.119Z,4.50
2022-10-25T21:06:12.736Z,4.30
2022-10-25T21:08:39.777Z,4.95
2022-10-25T21:11:11.257Z,3.95
2022-10-25T21:13:37.885Z,4.18
2022-10-25T21:16:09.624Z,4.70
2022-10-25T21:18:37.244Z,4.78
2022-10-25T21:21:06.745Z,4.55
2022-10-25T21:23:33.309Z,5.22
2022-10-25T21:26:05.738Z,4.78
2022-10-25T21:28:34.897Z,5.47
2022-10-25T21:31:02.689Z,3.92
2022-10-25T21:33:29.184Z,4.05
2022-10-25T21:35:55.624Z,4.40
2022-10-25T21:38:22.016Z,4.50
2022-10-25T21:40:48.506Z,5.28
2022-10-25T21:43:14.934Z,5.57
2022-10-25T21:45:42.028Z,5.25
2022-10-25T21:48:08.453Z,4.50
2022-10-25T21:50:34.868Z,4.53
2022-10-25T21:53:01.313Z,5.15
2022-10-25T21:55:27.715Z,4.82
2022-10-25T21:57:54.735Z,4.53
2022-10-25T22:00:21.351Z,5.03
2022-10-25T22:02:47.754Z,4.05
2022-10-25T22:05:14.184Z,4.30
2022-10-25T22:07:40.660Z,4.50
2022-10-25T22:10:07.347Z,5.20
2022-10-25T22:12:33.766Z,4.43
2022-10-25T22:15:00.137Z,4.20
2022-10-25T22:17:26.559Z,4.93
2022-10-25T22:19:52.955Z,4.68
2022-10-25T22:22:19.436Z,5.20
2022-10-25T22:24:45.881Z,5.15
2022-10-25T22:27:12.330Z,4.78
2022-10-25T22:29:38.713Z,4.82
2022-10-25T22:32:05.328Z,4.10
2022-10-25T22:34:31.717Z,4.65
2022-10-25T22:36:58.125Z,4.70
2022-10-25T22:39:24.593Z,5.18
2022-10-25T22:41:52.963Z,4.88
2022-10-25T22:44:19.462Z,5.60
2022-10-25T22:46:45.915Z,5.35
2022-10-25T22:49:12.299Z,4.65
2022-10-25T22:51:39.002Z,4.75
2022-10-25T22:54:05.926Z,5.65
2022-10-25T22:56:33.317Z,5.63
2022-10-25T22:59:02.449Z,5.38
2022-10-25T23:01:34.036Z,5.22
2022-10-25T23:04:00.911Z,5.90
2022-10-25T23:06:33.088Z,5.10
2022-10-25T23:09:01.521Z,5.80
2022-10-25T23:11:30.241Z,4.60
2022-10-25T23:13:57.904Z,4.65
2022-10-25T23:16:24.778Z,4.47
2022-10-25T23:18:51.312Z,4.22
2022-10-25T23:21:20.841Z,4.28
2022-10-25T23:23:47.724Z,4.20
2022-10-25T23:26:19.745Z,4.60
2022-10-25T23:28:46.285Z,4.15
2022-10-25T23:31:13.589Z,4.30
2022-10-25T23:33:41.714Z,4.30
2022-10-25T23:36:12.089Z,4.47
2022-10-25T23:38:38.736Z,4.00
2022-10-25T23:41:05.893Z,3.92
2022-10-25T23:43:32.599Z,3.65
2022-10-25T23:45:59.264Z,3.17
2022-10-25T23:48:25.865Z,4.60
2022-10-25T23:51:03.914Z,4.15
2022-10-25T23:53:30.648Z,4.57
2022-10-25T23:55:57.754Z,4.45
2022-10-25T23:58:24.778Z,4.28
